This is the latest recevied weather packets stored in our database for station/object IW1RID-3. If no packets are shown the sender has not sent any weather packets the latest 10 day(s).
| Time | Temp. | Humidity | Pressure | Rain* | Wind** | Luminosity | Snow |
|---|---|---|---|---|---|---|---|
| 1787634740 | 17.22° C | 95% | 1067.6 hPa | - | - | - | - |
| 1787633536 | 17.78° C | 92% | 1067.1 hPa | - | - | - | - |
| 1787632331 | 17.22° C | 96% | 1066.8 hPa | - | - | - | - |
| 1787631127 | 18.33° C | 90% | 1066.5 hPa | - | - | - | - |
| 1787629922 | 17.78° C | 94% | 1066.4 hPa | - | - | - | - |
| 1787628717 | 18.33° C | 91% | 1066.1 hPa | - | - | - | - |
| 1787627512 | 18.89° C | 88% | 1066 hPa | - | - | - | - |
| 1787626307 | 18.89° C | 89% | 1065.9 hPa | - | - | - | - |
| 1787625103 | 18.89° C | 90% | 1066.4 hPa | - | - | - | - |
| 1787623898 | 18.89° C | 91% | 1066.8 hPa | - | - | - | - |
| 1787622694 | 18.89° C | 93% | 1067.3 hPa | - | - | - | - |
| 1787621489 | 18.89° C | 99% | 1067.7 hPa | - | - | - | - |
| 1787620284 | 19.44° C | 97% | 1068.4 hPa | - | - | - | - |
| 1787619080 | 20° C | 92% | 1068.6 hPa | - | - | - | - |
| 1787617875 | 20° C | 95% | 1068.6 hPa | - | - | - | - |
| 1787616669 | 19.44° C | 97% | 1069.1 hPa | - | - | - | - |
| 1787615463 | 20° C | 99% | 1069.7 hPa | - | - | - | - |
| 1787614257 | 20.56° C | 96% | 1069.7 hPa | - | - | - | - |
| 1787613051 | 20° C | 99% | 1069.6 hPa | - | - | - | - |
| 1787611845 | 20.56° C | 94% | 1069.6 hPa | - | - | - | - |
| 1787610640 | 20° C | 97% | 1070 hPa | - | - | - | - |
| 1787609433 | 20° C | 94% | 1069.4 hPa | - | - | - | - |
| 1787608228 | 20° C | 99% | 1069.7 hPa | - | - | - | - |
| 1787607021 | 19.44° C | 97% | 1071.9 hPa | - | - | - | - |
| 1787605817 | 23.33° C | 88% | 1068.2 hPa | - | - | - | - |
* Rain since midnight (hover to see other rain measurements)
** Current wind speed in m/s (hover to see current wind gust speed)